Terminal Aerodrome Forecast
Issued by NWS

Home | Current Version | Previous Version | Text Only | Print | Product List | Glossary On
Versions: 1 2 3 4 5 6 7 8 9 10 11 12 13 14 15 16 17 18 19 20 21 22 23 24 25 26 27 28 29
558
FTUS43 KGRR 130540
TAFAZO
TAF
KAZO 130540Z 1306/1406 22004KT 4SM -SHSN OVC025
     FM130900 18005KT 4SM -SN OVC040
     FM131500 16010KT 3SM -SN OVC025
     FM132200 08008KT 3SM -SN OVC011
     FM140200 36010KT 5SM -SN OVC015
     FM140500 35009KT 6SM -SN BKN025=

USA.gov is the U.S. government's official web portal to all federal, state and local government web resources and services.